createdAt,value
2017-10-10T05:20:01.354Z,1004.1
2017-10-10T05:21:02.963Z,1004.1
2017-10-10T05:22:54.680Z,1004.1
2017-10-10T05:23:56.285Z,1004.1
2017-10-10T05:25:47.970Z,1004.1
2017-10-10T05:26:49.587Z,1004.1
2017-10-10T05:28:41.296Z,1004.1
2017-10-10T05:29:42.903Z,1004.1
2017-10-10T05:31:34.589Z,1004.1
2017-10-10T05:32:36.232Z,1004.1
2017-10-10T05:34:27.925Z,1004.1
2017-10-10T05:35:29.541Z,1004.0
2017-10-10T05:37:21.266Z,1004.0
2017-10-10T05:38:22.875Z,1004.0
2017-10-10T05:40:14.560Z,1004.0
2017-10-10T05:41:16.175Z,1004.0
2017-10-10T05:43:07.879Z,1004.0
2017-10-10T05:44:09.492Z,1004.0
2017-10-10T05:46:01.186Z,1004.0
2017-10-10T05:47:02.795Z,1004.1
2017-10-10T05:48:54.510Z,1004.1
2017-10-10T05:49:56.122Z,1004.1
2017-10-10T05:51:47.805Z,1004.1
2017-10-10T05:52:49.418Z,1004.1
2017-10-10T05:54:41.131Z,1004.1
2017-10-10T05:55:42.745Z,1004.1
2017-10-10T05:57:34.442Z,1004.2
2017-10-10T05:58:36.047Z,1004.2
2017-10-10T06:00:27.768Z,1004.2
2017-10-10T06:01:29.374Z,1004.2
2017-10-10T06:03:21.064Z,1004.2
2017-10-10T06:04:22.673Z,1004.2
2017-10-10T06:06:14.392Z,1004.1
2017-10-10T06:07:16.000Z,1004.1
2017-10-10T06:09:07.691Z,1004.1
2017-10-10T06:10:09.306Z,1004.1
2017-10-10T06:12:01.013Z,1004.1
2017-10-10T06:13:02.629Z,1004.1
2017-10-10T06:14:54.315Z,1004.1
2017-10-10T06:15:55.933Z,1004.2
2017-10-10T06:17:47.644Z,1004.2
2017-10-10T06:18:49.260Z,1004.2
2017-10-10T06:20:40.952Z,1004.2
2017-10-10T06:21:42.568Z,1004.2
2017-10-10T06:23:34.284Z,1004.2
2017-10-10T06:24:35.891Z,1004.2
2017-10-10T06:26:27.595Z,1004.2
2017-10-10T06:27:29.199Z,1004.3
2017-10-10T06:29:20.917Z,1004.3
2017-10-10T06:30:22.528Z,1004.3
2017-10-10T06:32:14.223Z,1004.3
2017-10-10T06:33:15.832Z,1004.4
2017-10-10T06:35:07.556Z,1004.4
2017-10-10T06:36:09.172Z,1004.4
2017-10-10T06:38:00.895Z,1004.4
2017-10-10T06:39:02.506Z,1004.4
2017-10-10T06:40:54.196Z,1004.4
2017-10-10T06:41:55.816Z,1004.4
2017-10-10T06:43:48.382Z,1004.4
2017-10-10T06:44:49.992Z,1004.4
2017-10-10T06:46:41.685Z,1004.4
2017-10-10T06:47:43.304Z,1004.4
2017-10-10T06:49:35.023Z,1004.4
2017-10-10T06:50:36.641Z,1004.4
2017-10-10T06:52:29.183Z,1004.5
2017-10-10T06:53:30.798Z,1004.5
2017-10-10T06:55:22.525Z,1004.5
2017-10-10T06:56:24.137Z,1004.5
2017-10-10T06:58:15.821Z,1004.5
2017-10-10T06:59:17.437Z,1004.5
2017-10-10T07:01:09.150Z,1004.5
2017-10-10T07:02:10.762Z,1004.5
2017-10-10T07:04:02.455Z,1004.5
2017-10-10T07:05:04.075Z,1004.5
2017-10-10T07:06:55.790Z,1004.5
2017-10-10T07:07:57.398Z,1004.5
2017-10-10T07:09:49.092Z,1004.6
2017-10-10T07:10:50.722Z,1004.6
2017-10-10T07:12:42.429Z,1004.6
2017-10-10T07:13:44.045Z,1004.6
2017-10-10T07:15:35.735Z,1004.7
2017-10-10T07:16:37.353Z,1004.7
2017-10-10T07:18:29.063Z,1004.7
2017-10-10T07:19:30.679Z,1004.8
2017-10-10T07:21:23.385Z,1004.8
2017-10-10T07:22:24.999Z,1004.8
2017-10-10T07:24:16.692Z,1004.8
2017-10-10T07:25:18.308Z,1004.8
2017-10-10T07:27:10.027Z,1004.8
2017-10-10T07:28:11.639Z,1004.8
2017-10-10T07:30:03.327Z,1004.9
2017-10-10T07:31:04.946Z,1004.9
2017-10-10T07:32:57.151Z,1004.9
2017-10-10T07:33:58.767Z,1004.9
2017-10-10T07:35:00.382Z,1004.9
2017-10-10T07:36:01.993Z,1004.9
2017-10-10T07:37:03.608Z,1005.0
2017-10-10T07:38:05.223Z,1005.0
2017-10-10T07:39:06.842Z,1005.0
2017-10-10T07:40:08.455Z,1005.0
2017-10-10T07:41:10.063Z,1004.9
2017-10-10T07:42:11.684Z,1005.0
2017-10-10T07:43:13.298Z,1005.0
2017-10-10T07:44:14.910Z,1005.0
2017-10-10T07:45:16.528Z,1005.0
2017-10-10T07:46:18.149Z,1005.0
2017-10-10T07:47:19.766Z,1005.0
2017-10-10T07:48:21.379Z,1005.0
2017-10-10T07:49:22.993Z,1005.0
2017-10-10T07:50:24.612Z,1005.0
2017-10-10T07:51:26.228Z,1005.0
2017-10-10T07:52:27.843Z,1005.0
2017-10-10T07:53:29.470Z,1005.0
2017-10-10T07:54:31.085Z,1005.0
2017-10-10T07:55:32.697Z,1005.0
2017-10-10T07:56:34.316Z,1004.9
2017-10-10T07:57:35.933Z,1004.9
2017-10-10T07:58:37.550Z,1005.0
2017-10-10T07:59:39.162Z,1005.0
2017-10-10T08:00:40.786Z,1005.0
2017-10-10T08:01:42.402Z,1005.0
2017-10-10T08:02:44.016Z,1005.0
2017-10-10T08:03:45.632Z,1005.0
2017-10-10T08:04:47.251Z,1005.1
2017-10-10T08:05:48.867Z,1005.1
2017-10-10T08:06:50.481Z,1005.1
2017-10-10T08:07:52.102Z,1005.0
2017-10-10T08:08:53.724Z,1005.1
2017-10-10T08:09:55.336Z,1005.1
2017-10-10T08:10:56.958Z,1005.1
2017-10-10T08:11:58.574Z,1005.0
2017-10-10T08:13:00.189Z,1005.1
2017-10-10T08:14:01.805Z,1005.1
2017-10-10T08:15:03.427Z,1005.0
2017-10-10T08:16:05.048Z,1005.1
2017-10-10T08:17:06.661Z,1005.1
2017-10-10T08:18:08.280Z,1005.1
2017-10-10T08:19:09.899Z,1005.1
2017-10-10T08:20:11.518Z,1005.1
2017-10-10T08:21:13.137Z,1005.1
2017-10-10T08:22:14.759Z,1005.2
2017-10-10T08:23:16.378Z,1005.2
2017-10-10T08:24:17.999Z,1005.2
2017-10-10T08:25:19.607Z,1005.2
2017-10-10T08:26:21.228Z,1005.1
2017-10-10T08:27:22.842Z,1005.1
2017-10-10T08:28:24.466Z,1005.2
2017-10-10T08:29:26.079Z,1005.1
2017-10-10T08:30:27.705Z,1005.2
2017-10-10T08:31:29.312Z,1005.2
2017-10-10T08:32:30.933Z,1005.2
2017-10-10T08:33:32.546Z,1005.2
2017-10-10T08:34:34.163Z,1005.2
2017-10-10T08:35:35.785Z,1005.2
2017-10-10T08:36:37.398Z,1005.2
2017-10-10T08:37:39.015Z,1005.2
2017-10-10T08:38:40.627Z,1005.2
2017-10-10T08:39:42.241Z,1005.2
2017-10-10T08:40:43.856Z,1005.2
2017-10-10T08:41:45.478Z,1005.2
2017-10-10T08:42:47.091Z,1005.2
2017-10-10T08:43:48.715Z,1005.2
2017-10-10T08:44:50.330Z,1005.2
2017-10-10T08:45:51.955Z,1005.2
2017-10-10T08:46:53.563Z,1005.2
2017-10-10T08:47:55.186Z,1005.2
2017-10-10T08:48:56.800Z,1005.3
2017-10-10T08:49:58.420Z,1005.3
2017-10-10T08:51:00.034Z,1005.2
2017-10-10T08:52:01.651Z,1005.3
2017-10-10T08:53:03.266Z,1005.3
2017-10-10T08:54:04.887Z,1005.3
2017-10-10T08:55:06.512Z,1005.3
2017-10-10T08:56:08.126Z,1005.3
2017-10-10T08:57:09.756Z,1005.3
2017-10-10T08:58:11.380Z,1005.3
2017-10-10T08:59:13.003Z,1005.3
2017-10-10T09:00:14.614Z,1005.3
2017-10-10T09:01:16.233Z,1005.3
2017-10-10T09:02:17.875Z,1005.3
2017-10-10T09:03:19.472Z,1005.3
2017-10-10T09:04:21.089Z,1005.3
2017-10-10T09:05:22.706Z,1005.3
2017-10-10T09:06:24.333Z,1005.3
2017-10-10T09:07:25.953Z,1005.2
2017-10-10T09:08:27.572Z,1005.2
2017-10-10T09:09:29.189Z,1005.2
2017-10-10T09:10:30.810Z,1005.2
2017-10-10T09:11:32.427Z,1005.3
2017-10-10T09:12:34.051Z,1005.2
2017-10-10T09:13:35.680Z,1005.2
2017-10-10T09:14:37.299Z,1005.3
2017-10-10T09:15:38.917Z,1005.3
2017-10-10T09:16:40.543Z,1005.2
2017-10-10T09:17:42.167Z,1005.2
2017-10-10T09:18:43.786Z,1005.2
2017-10-10T09:19:45.408Z,1005.2
2017-10-10T09:20:47.036Z,1005.2
2017-10-10T09:21:48.663Z,1005.2
2017-10-10T09:22:50.276Z,1005.2
2017-10-10T09:23:51.894Z,1005.2
2017-10-10T09:24:53.516Z,1005.2
2017-10-10T09:25:55.135Z,1005.2
2017-10-10T09:26:56.755Z,1005.3
2017-10-10T09:27:58.386Z,1005.2
2017-10-10T09:29:00.000Z,1005.3
2017-10-10T09:30:01.622Z,1005.2
2017-10-10T09:31:03.249Z,1005.3
2017-10-10T09:32:04.874Z,1005.2
2017-10-10T09:33:06.490Z,1005.2
2017-10-10T09:34:08.117Z,1005.3
2017-10-10T09:35:09.737Z,1005.3
2017-10-10T09:36:11.359Z,1005.3
2017-10-10T09:37:12.975Z,1005.4
2017-10-10T09:38:14.598Z,1005.3
2017-10-10T09:39:16.215Z,1005.4
2017-10-10T09:40:17.844Z,1005.4
2017-10-10T09:41:19.458Z,1005.3
2017-10-10T09:42:21.084Z,1005.4
2017-10-10T09:43:22.704Z,1005.4
2017-10-10T09:44:24.322Z,1005.4
2017-10-10T09:45:25.940Z,1005.4
2017-10-10T09:46:27.562Z,1005.4
2017-10-10T09:47:29.186Z,1005.4
2017-10-10T09:48:30.806Z,1005.4
2017-10-10T09:49:32.433Z,1005.4
2017-10-10T09:50:34.049Z,1005.4
2017-10-10T09:51:35.676Z,1005.5
2017-10-10T09:52:37.298Z,1005.4
2017-10-10T09:53:38.921Z,1005.5
2017-10-10T09:54:40.543Z,1005.4
2017-10-10T09:55:42.173Z,1005.5
2017-10-10T09:56:43.798Z,1005.5
2017-10-10T09:57:45.416Z,1005.5
2017-10-10T09:58:47.037Z,1005.4
2017-10-10T09:59:48.665Z,1005.5
2017-10-10T10:00:50.289Z,1005.5
2017-10-10T10:01:51.910Z,1005.5
2017-10-10T10:02:53.532Z,1005.5
2017-10-10T10:03:55.159Z,1005.5
2017-10-10T10:04:56.783Z,1005.5
2017-10-10T10:05:58.401Z,1005.5
2017-10-10T10:07:00.023Z,1005.5
2017-10-10T10:08:01.648Z,1005.5
2017-10-10T10:09:03.270Z,1005.6
2017-10-10T10:10:04.892Z,1005.6
2017-10-10T10:11:06.515Z,1005.6
2017-10-10T10:12:08.147Z,1005.6
2017-10-10T10:13:09.768Z,1005.6
2017-10-10T10:14:11.397Z,1005.6
2017-10-10T10:15:13.024Z,1005.6
2017-10-10T10:16:14.644Z,1005.6
2017-10-10T10:17:16.263Z,1005.5
2017-10-10T10:18:17.893Z,1005.6
2017-10-10T10:19:19.517Z,1005.6
2017-10-10T10:20:21.138Z,1005.5
2017-10-10T10:21:22.757Z,1005.6
2017-10-10T10:22:24.386Z,1005.6
2017-10-10T10:23:26.018Z,1005.5
2017-10-10T10:24:27.638Z,1005.6
2017-10-10T10:25:29.259Z,1005.5
2017-10-10T10:26:30.891Z,1005.6
2017-10-10T10:27:32.514Z,1005.6
2017-10-10T10:28:34.136Z,1005.6
2017-10-10T10:29:35.756Z,1005.5
2017-10-10T10:30:37.390Z,1005.6
2017-10-10T10:31:39.013Z,1005.7
2017-10-10T10:32:40.648Z,1005.7
2017-10-10T10:33:42.272Z,1005.6
2017-10-10T10:34:43.902Z,1005.6
2017-10-10T10:35:45.526Z,1005.5
2017-10-10T10:36:47.157Z,1005.5
2017-10-10T10:37:48.780Z,1005.5
2017-10-10T10:38:50.411Z,1005.5
2017-10-10T10:39:52.041Z,1005.4
2017-10-10T10:40:53.662Z,1005.4
2017-10-10T10:41:55.279Z,1005.5
2017-10-10T10:42:56.908Z,1005.4
2017-10-10T10:43:58.530Z,1005.5
2017-10-10T10:45:00.158Z,1005.5
2017-10-10T10:46:01.800Z,1005.5
2017-10-10T10:47:03.417Z,1005.5
2017-10-10T10:48:05.045Z,1005.4
2017-10-10T10:49:06.665Z,1005.4
2017-10-10T10:50:08.288Z,1005.4
2017-10-10T10:51:09.909Z,1005.4
2017-10-10T10:52:11.537Z,1005.4
2017-10-10T10:53:13.157Z,1005.4
2017-10-10T10:54:14.785Z,1005.4
2017-10-10T10:55:16.405Z,1005.4
2017-10-10T10:56:18.034Z,1005.4
2017-10-10T10:57:19.654Z,1005.4
2017-10-10T10:58:21.285Z,1005.4
2017-10-10T10:59:22.902Z,1005.5
2017-10-10T11:00:24.533Z,1005.4
2017-10-10T11:01:26.152Z,1005.4
2017-10-10T11:02:27.774Z,1005.4
2017-10-10T11:03:29.398Z,1005.5
2017-10-10T11:04:31.023Z,1005.5
2017-10-10T11:05:32.643Z,1005.5
2017-10-10T11:06:34.267Z,1005.5
2017-10-10T11:07:35.889Z,1005.5
2017-10-10T11:08:37.514Z,1005.5
2017-10-10T11:09:39.131Z,1005.4
2017-10-10T11:10:40.755Z,1005.4
2017-10-10T11:11:42.373Z,1005.5
2017-10-10T11:12:43.995Z,1005.4
2017-10-10T11:13:45.623Z,1005.4
2017-10-10T11:14:47.246Z,1005.4
2017-10-10T11:15:48.867Z,1005.5
2017-10-10T11:16:50.486Z,1005.4
2017-10-10T11:17:52.115Z,1005.5
2017-10-10T11:18:53.736Z,1005.6
2017-10-10T11:19:55.365Z,1005.4
2017-10-10T11:20:56.987Z,1005.4
2017-10-10T11:21:58.618Z,1005.4
2017-10-10T11:23:00.238Z,1005.4
2017-10-10T11:24:01.865Z,1005.3
2017-10-10T11:25:03.484Z,1005.3
2017-10-10T11:26:05.111Z,1005.4
2017-10-10T11:27:06.733Z,1005.4
2017-10-10T11:28:08.360Z,1005.4
2017-10-10T11:29:09.990Z,1005.5
2017-10-10T11:30:11.609Z,1005.4
2017-10-10T11:31:13.229Z,1005.4
2017-10-10T11:32:14.855Z,1005.5
2017-10-10T11:33:16.484Z,1005.4
2017-10-10T11:34:18.102Z,1005.4
2017-10-10T11:35:19.746Z,1005.3
2017-10-10T11:36:21.347Z,1005.3
2017-10-10T11:37:22.975Z,1005.5
2017-10-10T11:38:24.591Z,1005.4
2017-10-10T11:39:26.216Z,1005.3
2017-10-10T11:40:27.835Z,1005.4
2017-10-10T11:41:29.465Z,1005.4
2017-10-10T11:42:31.083Z,1005.3
2017-10-10T11:43:32.706Z,1005.3
2017-10-10T11:44:34.331Z,1005.4
2017-10-10T11:45:35.949Z,1005.4
2017-10-10T11:46:37.565Z,1005.4
2017-10-10T11:47:39.195Z,1005.4
2017-10-10T11:48:40.819Z,1005.3
2017-10-10T11:49:42.445Z,1005.4
2017-10-10T11:50:44.073Z,1005.4
2017-10-10T11:51:45.693Z,1005.4
2017-10-10T11:52:47.309Z,1005.5
2017-10-10T11:53:48.931Z,1005.4
2017-10-10T11:54:50.555Z,1005.4
2017-10-10T11:55:52.182Z,1005.4
2017-10-10T11:56:53.800Z,1005.4
2017-10-10T11:57:55.430Z,1005.4
2017-10-10T11:58:57.045Z,1005.5
2017-10-10T11:59:58.672Z,1005.5
2017-10-10T12:01:00.294Z,1005.5
2017-10-10T12:02:01.910Z,1005.5
2017-10-10T12:03:03.531Z,1005.5
2017-10-10T12:04:05.157Z,1005.5
2017-10-10T12:05:06.777Z,1005.5
2017-10-10T12:06:08.399Z,1005.4
2017-10-10T12:07:10.014Z,1005.5
2017-10-10T12:08:11.639Z,1005.4
2017-10-10T12:09:13.256Z,1005.4
2017-10-10T12:10:14.883Z,1005.4
2017-10-10T12:11:16.504Z,1005.4
2017-10-10T12:12:18.124Z,1005.4
2017-10-10T12:13:19.747Z,1005.4
2017-10-10T12:14:21.377Z,1005.4
2017-10-10T12:15:22.995Z,1005.3
2017-10-10T12:16:24.615Z,1005.3
2017-10-10T12:17:26.238Z,1005.2
2017-10-10T12:18:27.858Z,1005.3
2017-10-10T12:19:29.484Z,1005.3
2017-10-10T12:20:31.107Z,1005.4
2017-10-10T12:21:32.738Z,1005.3
2017-10-10T12:22:34.352Z,1005.3
2017-10-10T12:23:35.980Z,1005.3
2017-10-10T12:24:37.595Z,1005.3
2017-10-10T12:25:39.224Z,1005.3
2017-10-10T12:26:40.843Z,1005.3
2017-10-10T12:27:42.465Z,1005.3
2017-10-10T12:28:44.095Z,1005.3
2017-10-10T12:29:45.706Z,1005.4
2017-10-10T12:30:47.325Z,1005.4
2017-10-10T12:31:48.942Z,1005.4
2017-10-10T12:32:50.572Z,1005.4
2017-10-10T12:33:52.192Z,1005.4
2017-10-10T12:34:53.819Z,1005.4
2017-10-10T12:35:55.437Z,1005.4
2017-10-10T12:36:57.060Z,1005.4
2017-10-10T12:37:58.676Z,1005.3
2017-10-10T12:39:00.301Z,1005.3
2017-10-10T12:40:01.921Z,1005.3
2017-10-10T12:41:03.549Z,1005.3
2017-10-10T12:42:05.169Z,1005.3
2017-10-10T12:43:06.793Z,1005.3
2017-10-10T12:44:08.405Z,1005.3
2017-10-10T12:45:10.023Z,1005.3
2017-10-10T12:46:11.654Z,1005.3
2017-10-10T12:47:13.273Z,1005.3
2017-10-10T12:48:14.896Z,1005.3
2017-10-10T12:49:16.522Z,1005.3
2017-10-10T12:50:18.135Z,1005.3
2017-10-10T12:51:19.760Z,1005.3
2017-10-10T12:52:21.383Z,1005.3
2017-10-10T12:53:23.000Z,1005.2
2017-10-10T12:54:24.620Z,1005.2
2017-10-10T12:55:26.251Z,1005.2
2017-10-10T12:56:27.869Z,1005.2
2017-10-10T12:57:29.485Z,1005.2
2017-10-10T12:58:31.103Z,1005.2
2017-10-10T12:59:32.728Z,1005.2
2017-10-10T13:00:34.352Z,1005.2
2017-10-10T13:01:35.972Z,1005.2
2017-10-10T13:02:37.588Z,1005.3
2017-10-10T13:03:39.210Z,1005.3
2017-10-10T13:04:40.832Z,1005.3
2017-10-10T13:05:42.448Z,1005.3
2017-10-10T13:06:44.069Z,1005.3
2017-10-10T13:07:45.693Z,1005.3
2017-10-10T13:08:47.319Z,1005.3
2017-10-10T13:09:48.935Z,1005.3
2017-10-10T13:10:50.553Z,1005.3
2017-10-10T13:11:52.187Z,1005.3
2017-10-10T13:12:53.801Z,1005.3
2017-10-10T13:13:55.418Z,1005.3
2017-10-10T13:14:57.035Z,1005.2
2017-10-10T13:15:58.663Z,1005.2
2017-10-10T13:17:00.285Z,1005.2
2017-10-10T13:18:01.913Z,1005.2
2017-10-10T13:19:03.529Z,1005.3
2017-10-10T13:20:05.147Z,1005.2
2017-10-10T13:21:06.776Z,1005.2
2017-10-10T13:22:08.386Z,1005.2
2017-10-10T13:23:10.010Z,1005.2
2017-10-10T13:24:11.627Z,1005.2
2017-10-10T13:25:13.254Z,1005.2
2017-10-10T13:26:14.869Z,1005.2
2017-10-10T13:27:16.493Z,1005.2
2017-10-10T13:28:18.109Z,1005.2
2017-10-10T13:29:19.737Z,1005.1
2017-10-10T13:30:21.352Z,1005.1
2017-10-10T13:31:22.980Z,1005.2
2017-10-10T13:32:24.598Z,1005.1
2017-10-10T13:33:26.224Z,1005.1
2017-10-10T13:34:27.842Z,1005.2
2017-10-10T13:35:29.463Z,1005.1
2017-10-10T13:36:31.085Z,1005.2
2017-10-10T13:37:32.706Z,1005.2
2017-10-10T13:38:34.325Z,1005.1
2017-10-10T13:39:35.948Z,1005.2
2017-10-10T13:40:37.569Z,1005.1
2017-10-10T13:41:39.188Z,1005.1
2017-10-10T13:42:40.811Z,1005.2
2017-10-10T13:43:42.426Z,1005.1
2017-10-10T13:44:44.053Z,1005.2
2017-10-10T13:45:45.671Z,1005.2
2017-10-10T13:46:47.299Z,1005.2
2017-10-10T13:47:48.920Z,1005.2
2017-10-10T13:48:50.542Z,1005.1
2017-10-10T13:49:52.174Z,1005.2
2017-10-10T13:50:53.793Z,1005.2
2017-10-10T13:51:55.410Z,1005.2
2017-10-10T13:52:57.042Z,1005.2
2017-10-10T13:53:58.656Z,1005.2
2017-10-10T13:55:00.273Z,1005.2
2017-10-10T13:56:01.887Z,1005.2
2017-10-10T13:57:03.513Z,1005.3
2017-10-10T13:58:05.137Z,1005.2
2017-10-10T13:59:06.754Z,1005.2
2017-10-10T14:00:08.376Z,1005.3
2017-10-10T14:01:10.002Z,1005.2
2017-10-10T14:02:11.626Z,1005.2
2017-10-10T14:03:13.240Z,1005.2
2017-10-10T14:04:14.859Z,1005.2
2017-10-10T14:05:16.479Z,1005.2
2017-10-10T14:06:18.100Z,1005.2
2017-10-10T14:07:19.721Z,1005.2
2017-10-10T14:08:21.342Z,1005.2
2017-10-10T14:09:22.957Z,1005.2
2017-10-10T14:10:24.574Z,1005.2
2017-10-10T14:11:26.227Z,1005.2
2017-10-10T14:12:27.818Z,1005.2
2017-10-10T14:13:30.177Z,1005.2
2017-10-10T14:14:31.801Z,1005.2
2017-10-10T14:15:33.419Z,1005.2
2017-10-10T14:16:35.034Z,1005.1
2017-10-10T14:17:36.663Z,1005.3
2017-10-10T14:18:38.278Z,1005.2
2017-10-10T14:19:39.895Z,1005.2
2017-10-10T14:20:41.519Z,1005.2
2017-10-10T14:21:43.137Z,1005.2
2017-10-10T14:22:44.757Z,1005.1
2017-10-10T14:23:46.374Z,1005.1
2017-10-10T14:24:47.999Z,1005.1
2017-10-10T14:25:49.623Z,1005.1
2017-10-10T14:26:51.241Z,1005.1
2017-10-10T14:27:52.864Z,1005.1
2017-10-10T14:28:54.486Z,1005.1
2017-10-10T14:29:56.104Z,1005.1
2017-10-10T14:30:57.727Z,1005.1
2017-10-10T14:31:59.344Z,1005.1
2017-10-10T14:33:00.970Z,1005.1
2017-10-10T14:34:02.586Z,1005.2
2017-10-10T14:35:04.213Z,1005.2
2017-10-10T18:25:04.245Z,1006.1
2017-10-10T18:26:05.864Z,1006.1
2017-10-10T18:27:57.568Z,1006.1
2017-10-10T18:28:59.961Z,1006.1
2017-10-10T18:31:03.048Z,1006.1
2017-10-10T18:32:16.992Z,1006.0
2017-10-10T18:33:18.552Z,1006.0
2017-10-10T18:34:20.506Z,1006.0
2017-10-10T18:35:23.117Z,1006.0
2017-10-10T18:36:24.739Z,1006.0
2017-10-10T18:37:26.357Z,1006.0
2017-10-10T18:38:28.377Z,1006.0
2017-10-10T18:39:30.393Z,1005.9
2017-10-10T18:40:32.003Z,1006.0
2017-10-10T18:41:33.617Z,1006.1
2017-10-10T18:42:35.226Z,1006.1
2017-10-10T18:43:36.865Z,1006.1
2017-10-10T18:44:38.497Z,1006.0
2017-10-10T18:45:40.122Z,1006.0
2017-10-10T18:46:41.742Z,1006.0
2017-10-10T18:47:43.366Z,1006.0
2017-10-10T18:48:44.973Z,1006.0
2017-10-10T18:49:46.588Z,1006.0
2017-10-10T18:50:48.237Z,1006.0
2017-10-10T18:51:49.859Z,1006.0
2017-10-10T18:52:51.499Z,1006.0
2017-10-10T18:53:53.124Z,1006.0
2017-10-10T18:54:54.756Z,1006.0
2017-10-10T18:55:56.371Z,1006.0
2017-10-10T18:56:57.994Z,1006.0
2017-10-10T18:57:59.634Z,1006.0
2017-10-10T18:59:01.272Z,1006.0
2017-10-10T19:00:02.924Z,1006.0
2017-10-10T19:01:04.549Z,1005.9
2017-10-10T19:02:06.191Z,1005.9
2017-10-10T19:03:07.798Z,1005.9
2017-10-10T19:04:09.432Z,1006.0
2017-10-10T19:05:11.036Z,1005.9
2017-10-10T19:06:12.655Z,1006.0
2017-10-10T19:07:14.286Z,1005.9
2017-10-10T19:08:15.896Z,1005.9
2017-10-10T19:09:17.529Z,1005.9
2017-10-10T19:10:19.136Z,1005.9
2017-10-10T19:11:20.796Z,1005.9
2017-10-10T19:12:22.419Z,1005.9
2017-10-10T19:13:24.070Z,1005.9
2017-10-10T19:14:25.738Z,1005.9
2017-10-10T19:15:27.353Z,1005.9
2017-10-10T19:16:28.982Z,1005.9
2017-10-10T19:17:30.603Z,1005.9
2017-10-10T19:18:32.327Z,1005.9
2017-10-10T19:19:33.974Z,1005.9
2017-10-10T19:20:35.592Z,1005.9
2017-10-10T19:21:37.317Z,1005.9
2017-10-10T19:22:38.925Z,1005.9
2017-10-10T19:23:40.557Z,1005.9
2017-10-10T19:24:42.182Z,1005.9
2017-10-10T19:25:43.808Z,1005.9
2017-10-10T19:26:45.467Z,1005.9
2017-10-10T19:27:47.088Z,1005.9
2017-10-10T19:28:48.702Z,1005.9
2017-10-10T19:29:50.353Z,1005.9
2017-10-10T19:30:51.980Z,1005.9
2017-10-10T19:31:53.612Z,1005.9
2017-10-10T19:32:55.226Z,1006.0
2017-10-10T19:33:56.957Z,1005.9
2017-10-10T19:34:58.573Z,1006.0
2017-10-10T19:36:00.184Z,1005.9
2017-10-10T19:37:01.808Z,1005.9
2017-10-10T19:38:03.417Z,1006.0
2017-10-10T19:39:05.036Z,1006.0
2017-10-10T19:40:06.664Z,1006.0
2017-10-10T19:41:08.329Z,1006.0
2017-10-10T19:42:09.957Z,1005.9
2017-10-10T19:43:11.583Z,1005.9
2017-10-10T19:44:13.200Z,1005.9
2017-10-10T19:45:14.816Z,1005.9
2017-10-10T19:46:16.437Z,1005.9
2017-10-10T19:47:18.288Z,1005.9
2017-10-10T19:48:19.946Z,1005.9
2017-10-10T19:49:21.590Z,1005.9
2017-10-10T19:50:23.200Z,1005.9
2017-10-10T19:51:24.837Z,1005.9
2017-10-10T19:52:26.461Z,1006.0
2017-10-10T19:53:28.073Z,1006.0
2017-10-10T19:54:29.692Z,1006.0
2017-10-10T19:55:31.306Z,1006.0
2017-10-10T19:56:32.916Z,1006.0
2017-10-10T19:57:34.533Z,1006.0
2017-10-10T19:58:36.145Z,1006.0
2017-10-10T19:59:37.765Z,1006.0
2017-10-10T20:00:39.386Z,1006.0
2017-10-10T20:01:41.001Z,1006.0
2017-10-10T20:02:42.619Z,1006.0
2017-10-10T20:03:44.244Z,1006.1
2017-10-10T20:04:45.880Z,1006.0
2017-10-10T20:05:47.489Z,1006.1
2017-10-10T20:06:49.110Z,1006.1
2017-10-10T20:07:50.727Z,1006.1
2017-10-10T20:08:52.342Z,1006.1
2017-10-10T20:09:53.963Z,1006.1
2017-10-10T20:10:55.578Z,1006.1
2017-10-10T20:11:57.192Z,1006.1
2017-10-10T20:12:58.808Z,1006.1
2017-10-10T20:14:00.417Z,1006.1
2017-10-10T20:15:02.054Z,1006.1
2017-10-10T20:16:03.668Z,1006.1
2017-10-10T20:17:05.285Z,1006.1
2017-10-10T20:18:07.018Z,1006.1
2017-10-10T20:19:08.630Z,1006.1
2017-10-10T20:20:10.262Z,1006.1
2017-10-10T20:21:11.889Z,1006.1
2017-10-10T20:22:13.498Z,1006.1
2017-10-10T20:23:15.107Z,1006.1
2017-10-10T20:24:16.732Z,1006.2
2017-10-10T20:25:18.351Z,1006.2
2017-10-10T20:26:19.965Z,1006.2
2017-10-10T20:27:21.576Z,1006.2
2017-10-10T20:28:23.200Z,1006.2
2017-10-10T20:29:24.804Z,1006.2
2017-10-10T20:30:26.438Z,1006.3
2017-10-10T20:31:28.047Z,1006.3
2017-10-10T20:32:29.662Z,1006.3
2017-10-10T20:33:31.277Z,1006.3
2017-10-10T20:34:32.888Z,1006.3
2017-10-10T20:35:34.513Z,1006.3
2017-10-10T20:36:36.117Z,1006.3
2017-10-10T20:37:37.739Z,1006.3
2017-10-10T20:38:39.349Z,1006.3
2017-10-10T20:39:40.970Z,1006.3
2017-10-10T20:40:42.581Z,1006.3
2017-10-10T20:41:44.201Z,1006.4
2017-10-10T20:42:45.807Z,1006.4
2017-10-10T20:43:47.428Z,1006.3
2017-10-10T20:44:49.038Z,1006.3
2017-10-10T20:45:50.653Z,1006.3
2017-10-10T20:46:52.266Z,1006.3
2017-10-10T20:47:53.885Z,1006.3
2017-10-10T20:48:55.490Z,1006.3
2017-10-10T20:49:57.100Z,1006.3
2017-10-10T20:50:58.719Z,1006.3
2017-10-10T20:52:00.332Z,1006.3
2017-10-10T20:53:01.946Z,1006.3
2017-10-10T20:54:03.561Z,1006.3
2017-10-10T20:55:05.179Z,1006.3
2017-10-10T20:56:06.795Z,1006.3
2017-10-10T20:57:08.407Z,1006.3
2017-10-10T20:58:10.014Z,1006.3
2017-10-10T20:59:11.633Z,1006.3
2017-10-10T21:00:13.248Z,1006.3
2017-10-10T21:01:14.861Z,1006.4
2017-10-10T21:02:16.488Z,1006.4
2017-10-10T21:03:18.102Z,1006.4
2017-10-10T21:04:19.817Z,1006.4
2017-10-10T21:05:21.425Z,1006.4
2017-10-10T21:06:23.043Z,1006.4
2017-10-10T21:07:24.649Z,1006.4
2017-10-10T21:08:26.271Z,1006.4
2017-10-10T21:09:27.878Z,1006.4
2017-10-10T21:10:29.493Z,1006.4
2017-10-10T21:11:31.105Z,1006.4
2017-10-10T21:12:32.720Z,1006.4
2017-10-10T21:13:34.332Z,1006.4
2017-10-10T21:14:35.945Z,1006.4
2017-10-10T21:15:37.564Z,1006.5
2017-10-10T21:16:39.180Z,1006.4
2017-10-10T21:17:40.788Z,1006.4
2017-10-10T21:18:42.416Z,1006.4
2017-10-10T21:19:44.017Z,1006.5
2017-10-10T21:20:45.633Z,1006.5
2017-10-10T21:21:47.243Z,1006.4
2017-10-10T21:22:48.855Z,1006.4
2017-10-10T21:23:50.476Z,1006.4
2017-10-10T21:24:52.084Z,1006.3
2017-10-10T21:25:53.704Z,1006.4
2017-10-10T21:26:55.314Z,1006.4
2017-10-10T21:27:56.930Z,1006.3
2017-10-10T21:28:58.545Z,1006.4
2017-10-10T21:30:00.158Z,1006.4
2017-10-10T21:31:02.029Z,1006.4
2017-10-10T21:32:05.071Z,1006.4
2017-10-10T21:33:18.115Z,1006.4
2017-10-10T21:34:31.311Z,1006.4
2017-10-10T21:35:36.912Z,1006.3
2017-10-10T21:36:38.682Z,1006.3
2017-10-10T21:37:40.551Z,1006.4
2017-10-10T21:38:42.437Z,1006.3
2017-10-10T21:39:44.052Z,1006.4
2017-10-10T21:40:45.666Z,1006.4
2017-10-10T21:41:47.282Z,1006.3
2017-10-10T21:42:49.693Z,1006.4
2017-10-10T21:43:52.264Z,1006.4
2017-10-10T21:44:55.245Z,1006.3
2017-10-10T21:45:57.828Z,1006.4
2017-10-10T21:47:00.360Z,1006.3
2017-10-10T21:48:10.776Z,1006.3
2017-10-10T21:49:16.566Z,1006.3
2017-10-10T21:50:18.521Z,1006.4
2017-10-10T21:51:20.331Z,1006.3
2017-10-10T21:52:22.141Z,1006.3
2017-10-10T21:53:23.769Z,1006.3
2017-10-10T21:54:25.379Z,1006.3
2017-10-10T21:55:26.990Z,1006.3
2017-10-10T21:56:28.813Z,1006.3
2017-10-10T21:57:30.774Z,1006.3
2017-10-10T21:58:32.653Z,1006.3
2017-10-10T21:59:34.525Z,1006.3
2017-10-10T22:00:36.144Z,1006.3
2017-10-10T22:01:37.757Z,1006.3
2017-10-10T22:02:39.371Z,1006.3
2017-10-10T22:03:41.169Z,1006.3
2017-10-10T22:04:43.050Z,1006.3
2017-10-10T22:05:44.990Z,1006.3
2017-10-10T22:06:46.609Z,1006.2
2017-10-10T22:07:48.222Z,1006.2
2017-10-10T22:08:49.842Z,1006.2
2017-10-10T22:09:51.452Z,1006.2
2017-10-10T22:10:53.069Z,1006.3
2017-10-10T22:11:54.677Z,1006.2
2017-10-10T22:12:56.300Z,1006.2
2017-10-10T22:13:57.907Z,1006.2
2017-10-10T22:14:59.534Z,1006.1
2017-10-10T22:16:01.136Z,1006.0
2017-10-10T22:17:02.752Z,1006.0
2017-10-10T22:18:04.362Z,1006.0
2017-10-10T22:19:05.980Z,1006.0
2017-10-10T22:20:07.588Z,1006.1
2017-10-10T22:21:09.205Z,1006.0
2017-10-10T22:22:10.823Z,1006.0
2017-10-10T22:23:12.434Z,1006.0
2017-10-10T22:24:14.051Z,1006.0
2017-10-10T22:25:15.658Z,1006.0
2017-10-10T22:26:17.281Z,1006.0
2017-10-10T22:27:18.890Z,1006.0
2017-10-10T22:28:20.509Z,1006.0
2017-10-10T22:29:22.120Z,1006.0
2017-10-10T22:30:23.739Z,1006.1
2017-10-10T22:31:25.347Z,1006.1
2017-10-10T22:32:26.966Z,1006.0
2017-10-10T22:33:28.576Z,1006.1
2017-10-10T22:34:30.193Z,1006.0
2017-10-10T22:35:31.805Z,1006.0
2017-10-10T22:36:33.425Z,1006.1
2017-10-10T22:37:35.030Z,1006.0
2017-10-10T22:38:36.648Z,1006.0